createdAt,value
2018-01-28T00:08:01.962Z,6.40
2018-01-28T00:13:06.181Z,6.30
2018-01-28T00:18:10.308Z,6.40
2018-01-28T00:28:18.440Z,6.40
2018-01-28T00:33:21.491Z,6.50
2018-01-28T00:38:26.075Z,6.50
2018-01-28T00:43:29.179Z,6.40
2018-01-28T00:48:33.063Z,6.40
2018-01-28T00:53:36.782Z,6.30
2018-01-28T00:58:39.887Z,6.30
2018-01-28T01:03:42.966Z,6.30
2018-01-28T01:08:47.184Z,6.20
2018-01-28T01:18:56.194Z,6.20
2018-01-28T01:34:08.889Z,6.20
2018-01-28T01:44:16.543Z,6.20
2018-01-28T01:49:35.313Z,6.20
2018-01-28T01:59:43.471Z,6.20
2018-01-28T02:04:47.689Z,6.10
2018-01-28T02:09:51.527Z,6.20
2018-01-28T02:14:54.599Z,6.10
2018-01-28T02:25:02.759Z,6.10
2018-01-28T02:30:07.342Z,6.20
2018-01-28T02:40:16.718Z,6.20
2018-01-28T02:45:19.858Z,6.30
2018-01-28T02:50:24.368Z,6.30
2018-01-28T02:55:27.908Z,6.40
2018-01-28T03:00:31.447Z,6.40
2018-01-28T03:05:34.550Z,6.40
2018-01-28T03:10:39.887Z,6.40
2018-01-28T03:15:43.743Z,6.50
2018-01-28T03:20:48.940Z,6.50
2018-01-28T03:25:52.030Z,6.50
2018-01-28T03:30:55.976Z,6.60
2018-01-28T03:35:59.492Z,6.60
2018-01-28T03:41:02.573Z,6.70
2018-01-28T03:46:07.319Z,6.70
2018-01-28T03:51:11.984Z,6.80
2018-01-28T04:01:19.916Z,7.00
2018-01-28T04:06:23.031Z,7.00
2018-01-28T04:11:28.036Z,7.00
2018-01-28T04:21:36.736Z,7.00
2018-01-28T04:26:40.943Z,7.00
2018-01-28T04:36:49.303Z,7.00
2018-01-28T04:41:53.514Z,7.10
2018-01-28T04:46:57.200Z,7.10
2018-01-28T04:52:02.536Z,7.20
2018-01-28T04:57:05.628Z,7.20
2018-01-28T05:02:09.815Z,7.30
2018-01-28T05:07:12.900Z,7.30
2018-01-28T05:12:17.104Z,7.30
2018-01-28T05:17:21.723Z,7.30
2018-01-28T05:22:25.572Z,7.20
2018-01-28T05:27:29.436Z,7.20
2018-01-28T05:32:32.550Z,7.20
2018-01-28T05:37:36.403Z,7.20
2018-01-28T05:42:39.877Z,7.20
2018-01-28T05:47:44.724Z,7.20
2018-01-28T05:52:47.804Z,7.20
2018-01-28T05:57:52.110Z,7.30
2018-01-28T06:08:01.568Z,7.30
2018-01-28T06:18:10.640Z,7.40
2018-01-28T06:23:14.595Z,7.40
2018-01-28T06:28:17.757Z,7.40
2018-01-28T06:33:22.228Z,7.40
2018-01-28T06:38:26.079Z,7.40
2018-01-28T06:48:33.599Z,7.40
2018-01-28T06:53:37.091Z,7.40
2018-01-28T06:58:40.600Z,7.50
2018-01-28T07:03:44.443Z,7.50
2018-01-28T07:08:49.278Z,7.50
2018-01-28T07:18:57.555Z,7.50
2018-01-28T07:24:02.225Z,7.60
2018-01-28T07:29:05.699Z,7.60
2018-01-28T08:04:36.248Z,8.20
2018-01-28T08:20:35.580Z,8.40
2018-01-28T08:35:49.096Z,8.50
2018-01-28T08:45:56.629Z,8.60
2018-01-28T08:56:05.284Z,8.60
2018-01-28T09:06:13.576Z,8.80
2018-01-28T09:11:18.161Z,8.80
2018-01-28T09:16:21.652Z,8.80
2018-01-28T09:21:24.781Z,8.80
2018-01-28T09:31:32.638Z,8.90
2018-01-28T09:41:41.689Z,8.90
2018-01-28T09:46:44.787Z,8.90
2018-01-28T10:07:01.585Z,8.80
2018-01-28T10:22:15.066Z,8.80
2018-01-28T10:27:18.922Z,8.80
2018-01-28T10:32:22.782Z,8.90
2018-01-28T10:37:26.294Z,8.90
2018-01-28T10:42:29.741Z,8.90
2018-01-28T10:47:32.835Z,8.90
2018-01-28T10:52:36.309Z,9.00
2018-01-28T10:57:39.921Z,9.10
2018-01-28T11:02:44.145Z,9.20
2018-01-28T11:07:48.732Z,9.30
2018-01-28T11:28:06.836Z,9.40
2018-01-28T11:33:11.065Z,9.60
2018-01-28T11:38:14.153Z,9.70
2018-01-28T11:43:18.060Z,9.80
2018-01-28T11:53:25.988Z,10.10
2018-01-28T11:58:30.598Z,10.30
2018-01-28T12:03:33.696Z,10.30
2018-01-28T12:08:36.777Z,10.30
2018-01-28T12:13:39.863Z,10.20
2018-01-28T12:18:42.943Z,10.30
2018-01-28T12:28:50.870Z,10.30
2018-01-28T12:33:54.388Z,10.30
2018-01-28T12:38:57.481Z,10.30
2018-01-28T12:44:01.341Z,10.40
2018-01-28T12:49:05.933Z,10.40
2018-01-28T12:54:09.027Z,10.50
2018-01-28T12:59:12.136Z,10.70
2018-01-28T13:04:15.230Z,10.80
2018-01-28T13:09:19.090Z,10.80
2018-01-28T13:14:22.568Z,10.80
2018-01-28T13:24:30.483Z,11.00
2018-01-28T13:29:33.571Z,11.10
2018-01-28T13:34:36.663Z,11.20
2018-01-28T13:39:39.747Z,11.30
2018-01-28T13:44:43.605Z,11.30
2018-01-28T13:49:47.465Z,11.30
2018-01-28T13:54:50.579Z,11.30
2018-01-28T13:59:55.188Z,11.20
2018-01-28T14:04:58.670Z,11.20
2018-01-28T14:10:02.520Z,11.20
2018-01-28T14:15:05.608Z,11.10
2018-01-28T14:20:08.700Z,11.20
2018-01-28T14:25:12.575Z,11.20
2018-01-28T14:30:16.059Z,11.20
2018-01-28T14:35:20.279Z,11.30
2018-01-28T14:40:23.759Z,11.40
2018-01-28T14:45:27.623Z,11.40
2018-01-28T14:50:31.468Z,11.50
2018-01-28T14:55:34.572Z,11.50
2018-01-28T15:00:37.689Z,11.50
2018-01-28T15:10:45.639Z,11.50
2018-01-28T15:21:00.164Z,11.60
2018-01-28T15:31:07.733Z,11.70
2018-01-28T15:36:10.851Z,11.60
2018-01-28T15:46:18.768Z,11.60
2018-01-28T15:56:26.318Z,11.40
2018-01-28T16:06:34.824Z,11.30
2018-01-28T16:21:47.970Z,11.80
2018-01-28T16:36:59.897Z,11.30
2018-01-28T16:42:02.987Z,11.20
2018-01-28T16:57:16.115Z,11.10
2018-01-28T17:02:19.968Z,11.10
2018-01-28T17:07:24.196Z,11.10
2018-01-28T17:12:28.970Z,11.00
2018-01-28T17:22:37.100Z,11.00
2018-01-28T17:27:40.964Z,10.90
2018-01-28T17:32:44.831Z,10.90
2018-01-28T17:37:48.681Z,10.90
2018-01-28T17:47:56.232Z,10.90
2018-01-28T17:52:59.315Z,10.80
2018-01-28T17:58:03.155Z,10.80
2018-01-28T18:08:12.164Z,10.70
2018-01-28T18:13:16.392Z,10.70
2018-01-28T18:18:20.992Z,10.70
2018-01-28T18:23:25.239Z,10.80
2018-01-28T18:28:29.464Z,10.80
2018-01-28T18:33:32.772Z,10.80
2018-01-28T18:38:36.632Z,10.80
2018-01-28T18:43:39.719Z,10.80
2018-01-28T18:48:42.807Z,10.70
2018-01-28T18:53:46.655Z,10.70
2018-01-28T18:58:49.758Z,10.70
2018-01-28T19:03:54.352Z,10.70
2018-01-28T19:14:02.676Z,10.80
2018-01-28T19:19:05.762Z,10.80
2018-01-28T19:24:08.928Z,10.80
2018-01-28T19:29:13.530Z,10.80
2018-01-28T19:34:17.748Z,10.90
2018-01-28T19:39:20.839Z,10.90
2018-01-28T19:44:23.950Z,10.90
2018-01-28T19:54:32.596Z,10.90
2018-01-28T19:59:35.687Z,10.90
2018-01-28T20:04:39.912Z,10.90
2018-01-28T20:09:43.763Z,10.90
2018-01-28T20:19:52.442Z,10.90
2018-01-28T20:30:00.728Z,10.80
2018-01-28T20:40:09.765Z,10.80
2018-01-28T20:45:13.988Z,10.80
2018-01-28T20:55:21.924Z,10.80
2018-01-28T21:00:24.999Z,10.80
2018-01-28T21:05:28.079Z,10.80
2018-01-28T21:10:32.679Z,10.80
2018-01-28T21:15:35.770Z,10.80
2018-01-28T21:20:38.843Z,10.80
2018-01-28T21:30:46.743Z,10.80
2018-01-28T21:35:49.819Z,10.80
2018-01-28T21:40:54.039Z,10.80
2018-01-28T21:45:57.514Z,10.80
2018-01-28T21:51:00.991Z,10.80
2018-01-28T21:56:04.067Z,10.70
2018-01-28T22:01:07.916Z,10.70
2018-01-28T22:06:10.995Z,10.70
2018-01-28T22:11:14.484Z,10.70
2018-01-28T22:16:17.957Z,10.70
2018-01-28T22:21:21.039Z,10.70
2018-01-28T22:26:24.167Z,10.70
2018-01-28T22:31:27.257Z,10.70
2018-01-28T22:36:30.738Z,10.70
2018-01-28T22:41:34.575Z,10.70
2018-01-28T22:46:38.432Z,10.70
2018-01-28T22:51:42.287Z,10.70
2018-01-28T22:56:46.135Z,10.70
2018-01-28T23:01:49.217Z,10.70
2018-01-28T23:06:53.075Z,10.70
2018-01-28T23:11:56.173Z,10.70
2018-01-28T23:17:00.396Z,10.80
2018-01-28T23:22:03.483Z,10.80
2018-01-28T23:27:07.351Z,10.80
2018-01-28T23:32:10.432Z,10.80
2018-01-28T23:37:15.036Z,10.80
2018-01-28T23:42:18.519Z,10.70
2018-01-28T23:47:22.383Z,10.70
2018-01-28T23:52:25.522Z,10.70
2018-01-28T23:57:28.671Z,10.70
